Time;durP1;ratioP1;P1;durP2;ratioP2;P2;SDS_P1;SDS_P2;PMS_P1;PMS_P2;Temp;Humidity;BMP_temperature;BMP_pressure;BME280_temperature;BME280_humidity;BME280_pressure;Samples;Min_cycle;Max_cycle;Signal;HPM_P1;HPM_P2
2022/06/12 00:00:56;;;;;;;9.50;8.27;;;;;;;15.03;82.60;99111.63;4169945;28;20033;-72
2022/06/12 00:02:58;;;;;;;10.23;7.50;;;;;;;15.08;82.55;99110.44;4170403;28;20926;-72
2022/06/12 00:04:59;;;;;;;7.75;6.40;;;;;;;15.08;82.77;99104.88;4170094;28;20057;-72
2022/06/12 00:06:59;;;;;;;8.40;5.93;;;;;;;15.10;83.08;99103.28;4169919;28;20067;-72
2022/06/12 00:08:59;;;;;;;8.35;5.70;;;;;;;15.05;84.92;99111.22;4169580;28;20060;-72
2022/06/12 00:11:03;;;;;;;8.13;5.60;;;;;;;15.03;85.00;99108.81;4170028;28;20029;-72
2022/06/12 00:13:06;;;;;;;6.40;5.60;;;;;;;15.01;85.11;99110.41;4169527;28;20087;-72
2022/06/12 00:15:08;;;;;;;6.90;5.53;;;;;;;14.96;86.21;99117.16;4170018;28;20032;-72
2022/06/12 00:17:08;;;;;;;7.50;5.97;;;;;;;14.92;86.15;99113.56;4169792;28;20036;-72
2022/06/12 00:19:10;;;;;;;7.55;5.03;;;;;;;14.91;86.45;99111.19;4168802;28;20248;-72
2022/06/12 00:21:10;;;;;;;7.85;5.20;;;;;;;14.90;85.34;99115.97;4169540;28;20029;-72
2022/06/12 00:23:14;;;;;;;7.50;5.43;;;;;;;14.83;85.88;99113.94;4169762;28;20472;-72
2022/06/12 00:25:18;;;;;;;7.70;5.40;;;;;;;14.74;86.46;99107.13;4169704;28;20298;-72
2022/06/12 00:27:18;;;;;;;5.93;5.18;;;;;;;14.70;87.05;99106.28;4170345;28;20029;-72
2022/06/12 00:29:28;;;;;;;6.85;5.43;;;;;;;14.68;85.29;99103.91;4169064;28;20025;-72
2022/06/12 00:31:29;;;;;;;5.80;4.50;;;;;;;14.67;84.65;99107.09;4168704;28;20784;-72
2022/06/12 00:33:31;;;;;;;7.10;5.13;;;;;;;14.55;85.88;99099.84;4169410;28;20025;-72
2022/06/12 00:35:34;;;;;;;5.82;4.93;;;;;;;14.48;87.15;99105.38;4169481;28;20021;-72
2022/06/12 00:37:36;;;;;;;11.13;5.70;;;;;;;14.41;88.37;99106.13;4169236;28;20029;-72
2022/06/12 00:39:36;;;;;;;8.02;5.53;;;;;;;14.32;89.55;99098.13;4169099;28;20424;-72
2022/06/12 00:41:39;;;;;;;6.25;4.93;;;;;;;14.30;89.89;99110.81;4169729;28;20025;-72
2022/06/12 00:43:40;;;;;;;7.63;5.63;;;;;;;14.20;90.78;99109.56;4169394;28;20025;-72
2022/06/12 00:45:49;;;;;;;7.13;6.20;;;;;;;14.19;91.17;99116.31;4169631;28;20041;-72
2022/06/12 00:47:49;;;;;;;10.90;6.07;;;;;;;14.13;91.50;99117.84;4167534;28;20041;-72
2022/06/12 00:49:59;;;;;;;9.00;6.13;;;;;;;14.03;91.44;99119.38;4168771;28;20133;-72
2022/06/12 00:52:06;;;;;;;9.15;6.28;;;;;;;13.85;92.14;99106.50;4169114;28;20519;-72
2022/06/12 00:54:09;;;;;;;7.35;6.20;;;;;;;13.84;92.00;99110.47;4169343;28;20326;-72
2022/06/12 00:56:26;;;;;;;8.77;6.43;;;;;;;13.78;92.13;99115.56;4169335;28;20487;-72
2022/06/12 00:58:32;;;;;;;7.57;6.28;;;;;;;13.62;93.31;99107.50;4167614;28;20485;-72
2022/06/12 01:00:34;;;;;;;8.05;7.03;;;;;;;13.65;93.30;99103.97;4169268;28;20103;-72
2022/06/12 01:02:35;;;;;;;9.35;6.05;;;;;;;13.61;93.76;99100.34;4170290;28;20031;-72
2022/06/12 01:07:01;;;;;;;9.20;5.85;;;;;;;13.65;90.92;99100.34;4170260;28;20044;-72
2022/06/12 01:09:07;;;;;;;9.02;6.38;;;;;;;13.63;91.32;99100.75;4168717;28;20025;-72
2022/06/12 01:11:11;;;;;;;9.27;6.45;;;;;;;13.63;90.17;99097.97;4170086;28;20029;-72
2022/06/12 01:13:18;;;;;;;6.90;5.72;;;;;;;13.64;91.07;99095.97;4170240;28;20381;-72
2022/06/12 01:15:27;;;;;;;7.47;6.40;;;;;;;13.57;90.78;99093.13;4170144;28;20853;-72
2022/06/12 01:17:29;;;;;;;7.85;6.53;;;;;;;13.54;92.41;99099.47;4170313;28;20032;-72
2022/06/12 01:19:41;;;;;;;9.60;6.13;;;;;;;13.45;92.54;99086.69;4169193;28;20115;-72
2022/06/12 01:22:10;;;;;;;7.23;5.43;;;;;;;13.46;89.87;99084.69;4169990;28;20390;-72
2022/06/12 01:24:26;;;;;;;7.65;5.93;;;;;;;13.50;89.92;99088.31;4169322;28;20248;-72
2022/06/12 01:26:57;;;;;;;6.55;5.43;;;;;;;13.51;88.80;99076.03;4170319;28;20072;-72
2022/06/12 01:29:13;;;;;;;6.47;5.85;;;;;;;13.55;88.49;99081.59;4169527;28;20304;-72
2022/06/12 01:31:42;;;;;;;9.23;5.38;;;;;;;13.46;89.98;99074.38;4170104;28;20044;-72
2022/06/12 01:34:10;;;;;;;6.97;5.40;;;;;;;13.39;89.86;99074.31;4169373;28;20063;-72
2022/06/12 01:36:25;;;;;;;5.75;5.10;;;;;;;13.36;89.61;99082.63;4169496;28;20078;-72
2022/06/12 01:38:37;;;;;;;9.35;5.30;;;;;;;13.27;90.57;99080.16;4168704;28;20122;-72
2022/06/12 01:40:52;;;;;;;6.05;5.15;;;;;;;13.27;89.68;99084.91;4168944;28;20295;-72
2022/06/12 01:43:01;;;;;;;6.65;5.45;;;;;;;13.27;89.34;99071.81;4169714;28;20409;-72
2022/06/12 01:45:11;;;;;;;6.97;5.75;;;;;;;13.41;87.11;99071.16;4169296;28;20473;-72
2022/06/12 01:47:26;;;;;;;6.78;5.90;;;;;;;13.27;92.48;99071.81;4170004;28;20515;-72
2022/06/12 01:49:43;;;;;;;8.13;5.95;;;;;;;13.22;91.42;99066.59;4169142;28;20033;-72
2022/06/12 01:52:13;;;;;;;7.97;5.80;;;;;;;13.32;89.89;99073.44;4168786;28;20112;-72
2022/06/12 01:54:20;;;;;;;6.72;5.63;;;;;;;13.34;90.24;99062.75;4169977;28;20029;-72
2022/06/12 01:56:26;;;;;;;7.13;5.68;;;;;;;13.29;89.78;99055.56;4170084;28;20056;-72
2022/06/12 01:58:29;;;;;;;8.25;6.18;;;;;;;13.16;92.51;99065.31;4169100;28;20029;-72
2022/06/12 02:00:30;;;;;;;10.15;6.28;;;;;;;13.08;92.24;99064.44;4173079;28;20510;-72
2022/06/12 02:02:56;;;;;;;8.25;5.93;;;;;;;13.02;92.61;99067.94;4172009;28;20473;-72
2022/06/12 02:05:31;;;;;;;6.90;5.63;;;;;;;12.92;92.12;99072.22;4171765;28;20041;-72
2022/06/12 02:07:36;;;;;;;6.50;5.10;;;;;;;12.85;91.57;99064.59;4163842;28;20044;-72
2022/06/12 02:10:20;;;;;;;7.80;5.32;;;;;;;12.80;91.56;99062.13;4171642;28;20140;-72
2022/06/12 02:15:01;;;;;;;5.95;5.35;;;;;;;12.75;91.24;99062.50;4136193;28;20091;-72
2022/06/12 02:17:03;;;;;;;7.05;5.57;;;;;;;12.68;94.06;99065.19;4147153;28;20284;-71
2022/06/12 02:19:11;;;;;;;6.55;5.90;;;;;;;12.65;95.18;99065.91;4172351;28;20394;-72
2022/06/12 02:21:34;;;;;;;7.22;6.35;;;;;;;12.57;97.00;99064.22;4171214;28;20126;-72
2022/06/12 02:23:44;;;;;;;7.68;6.10;;;;;;;12.52;97.48;99070.13;4172478;28;20327;-72
2022/06/12 02:25:48;;;;;;;8.00;5.70;;;;;;;12.47;97.51;99070.44;4172456;28;20029;-72
2022/06/12 02:28:04;;;;;;;10.30;6.68;;;;;;;12.38;97.40;99063.19;4173079;28;20040;-72
2022/06/12 02:30:13;;;;;;;11.25;6.75;;;;;;;12.32;98.65;99067.47;4172382;28;20033;-72
2022/06/12 02:32:24;;;;;;;10.48;5.78;;;;;;;12.24;98.65;99068.53;4172430;28;20337;-72
2022/06/12 02:34:28;;;;;;;6.65;5.65;;;;;;;12.23;98.05;99072.50;4172765;28;20104;-72
2022/06/12 02:36:38;;;;;;;11.05;6.00;;;;;;;12.21;96.86;99066.53;4171715;28;20052;-72
2022/06/12 02:38:48;;;;;;;9.48;6.10;;;;;;;12.27;94.57;99067.81;4171013;28;20516;-72
2022/06/12 02:40:53;;;;;;;13.93;6.80;;;;;;;12.18;97.02;99066.47;4172171;28;20024;-72
2022/06/12 02:42:57;;;;;;;7.30;5.45;;;;;;;12.16;95.41;99066.03;4172757;28;20080;-72
2022/06/12 02:45:11;;;;;;;6.22;5.63;;;;;;;12.15;93.74;99068.00;4172313;28;20047;-71
2022/06/12 02:47:16;;;;;;;7.03;6.18;;;;;;;12.09;95.22;99066.75;4172611;28;20397;-72
2022/06/12 02:49:18;;;;;;;8.73;6.00;;;;;;;12.08;96.96;99070.69;4171715;28;20317;-71
2022/06/12 02:51:37;;;;;;;10.10;6.18;;;;;;;12.05;95.83;99074.22;4172003;28;20089;-72
2022/06/12 02:54:09;;;;;;;7.07;5.45;;;;;;;12.03;96.74;99066.28;4172725;28;20029;-72
2022/06/12 02:56:41;;;;;;;6.35;5.63;;;;;;;11.96;97.57;99063.38;4171823;28;20280;-72
2022/06/12 02:58:55;;;;;;;7.75;5.97;;;;;;;11.91;97.72;99065.66;4168883;28;20151;-71
2022/06/12 03:01:01;;;;;;;10.55;6.43;;;;;;;11.88;97.86;99072.75;4172523;28;20040;-72
2022/06/12 03:03:26;;;;;;;6.60;5.38;;;;;;;11.86;97.99;99077.09;4172698;28;20033;-71
2022/06/12 03:05:31;;;;;;;8.80;6.07;;;;;;;11.85;97.01;99072.72;4171951;28;20488;-72
2022/06/12 03:07:32;;;;;;;8.77;6.03;;;;;;;11.76;98.59;99070.19;4171772;28;20025;-71
2022/06/12 03:09:33;;;;;;;8.60;6.22;;;;;;;11.73;98.68;99087.53;4170931;28;20128;-72
2022/06/12 03:11:40;;;;;;;9.07;5.80;;;;;;;11.74;98.53;99081.63;4171965;28;20079;-72
2022/06/12 03:13:41;;;;;;;6.53;5.72;;;;;;;11.68;98.20;99090.63;4172069;28;20033;-72
2022/06/12 03:15:56;;;;;;;12.57;6.82;;;;;;;11.50;100.00;99102.22;4172323;28;20033;-72
2022/06/12 03:17:59;;;;;;;11.52;6.63;;;;;;;11.35;100.00;99094.00;4171746;28;20055;-71
2022/06/12 03:19:59;;;;;;;8.98;6.80;;;;;;;11.31;100.00;99093.94;4170939;28;20029;-72
2022/06/12 03:22:35;;;;;;;7.55;6.30;;;;;;;11.29;100.00;99093.50;4172111;28;20033;-71
2022/06/12 03:24:46;;;;;;;8.25;6.38;;;;;;;11.33;100.00;99094.34;4171719;28;20416;-71
2022/06/12 03:26:55;;;;;;;9.10;6.65;;;;;;;11.40;100.00;99096.47;4171177;28;20488;-71
2022/06/12 03:29:34;;;;;;;12.60;7.25;;;;;;;11.51;100.00;99105.78;4171001;28;20505;-71
2022/06/12 03:31:43;;;;;;;7.88;6.20;;;;;;;11.63;100.00;99104.78;4171229;28;20219;-72
2022/06/12 03:34:14;;;;;;;9.77;6.40;;;;;;;11.68;100.00;99112.81;4171754;28;20060;-71
2022/06/12 03:36:39;;;;;;;11.00;6.20;;;;;;;11.70;100.00;99113.22;4171078;28;20029;-71
2022/06/12 03:39:05;;;;;;;11.07;7.30;;;;;;;11.74;100.00;99109.34;4170916;28;20326;-71
2022/06/12 03:41:26;;;;;;;9.30;6.75;;;;;;;11.75;100.00;99099.03;4171783;28;20116;-71
2022/06/12 03:44:12;;;;;;;9.55;6.60;;;;;;;11.82;100.00;99102.75;4171959;28;20365;-72
2022/06/12 03:46:20;;;;;;;8.75;5.85;;;;;;;11.92;100.00;99112.44;4170604;28;20040;-71
2022/06/12 03:48:30;;;;;;;6.93;6.22;;;;;;;12.04;97.36;99116.97;4170452;28;20028;-72
2022/06/12 03:50:41;;;;;;;8.40;6.68;;;;;;;12.12;95.43;99110.38;4171236;28;20580;-71
2022/06/12 03:52:48;;;;;;;8.57;5.90;;;;;;;12.24;93.94;99107.38;4171739;28;20044;-72
2022/06/12 03:55:04;;;;;;;9.95;5.53;;;;;;;12.32;93.44;99119.38;4171293;28;20025;-72
2022/06/12 03:59:38;;;;;;;8.93;5.90;;;;;;;12.33;92.65;99124.59;4169570;28;20512;-72
2022/06/12 04:01:41;;;;;;;8.75;5.97;;;;;;;12.29;92.78;99123.72;4170856;28;20094;-71
2022/06/12 04:03:45;;;;;;;7.45;6.13;;;;;;;12.29;92.11;99120.94;4170720;28;20029;-71
2022/06/12 04:06:01;;;;;;;14.00;6.47;;;;;;;12.32;91.60;99127.72;4170876;28;20698;-72
2022/06/12 04:08:05;;;;;;;6.30;5.70;;;;;;;12.30;92.44;99127.28;4170975;28;20037;-71
2022/06/12 04:10:08;;;;;;;8.98;6.05;;;;;;;12.25;93.11;99133.97;4170719;28;20040;-71
2022/06/12 04:12:15;;;;;;;9.32;5.60;;;;;;;12.25;92.40;99133.97;4170894;28;20067;-72
2022/06/12 04:14:17;;;;;;;7.60;6.13;;;;;;;12.35;91.65;99136.09;4170589;28;20016;-71
2022/06/12 04:16:34;;;;;;;8.18;5.80;;;;;;;12.48;90.71;99130.31;4171268;28;20037;-71
2022/06/12 04:18:34;;;;;;;7.30;6.03;;;;;;;12.54;91.35;99135.16;4170218;28;20642;-72
2022/06/12 04:20:55;;;;;;;7.63;6.05;;;;;;;12.66;90.32;99131.38;4170942;28;20061;-72
2022/06/12 04:23:16;;;;;;;7.82;5.45;;;;;;;12.78;89.92;99122.81;4170526;28;20025;-71
2022/06/12 04:25:28;;;;;;;10.48;5.35;;;;;;;12.97;90.35;99112.72;4171014;28;20033;-71
2022/06/12 04:27:39;;;;;;;6.72;5.47;;;;;;;13.08;92.71;99122.78;4169552;28;20028;-72
2022/06/12 04:29:56;;;;;;;7.45;5.40;;;;;;;13.25;94.99;99126.19;4170073;28;20489;-72
2022/06/12 04:32:01;;;;;;;7.47;5.95;;;;;;;13.35;95.02;99133.81;4170528;28;20021;-72
2022/06/12 04:34:14;;;;;;;9.77;7.03;;;;;;;13.44;92.61;99137.09;4170867;28;20021;-72
2022/06/12 04:36:15;;;;;;;6.93;6.22;;;;;;;13.52;91.09;99143.53;4170030;28;20487;-72
2022/06/12 04:38:15;;;;;;;7.20;5.43;;;;;;;13.56;91.62;99130.44;4169622;28;20090;-72
2022/06/12 04:40:24;;;;;;;6.95;5.32;;;;;;;13.68;91.90;99125.44;4169260;28;20668;-72
2022/06/12 04:42:27;;;;;;;7.25;4.80;;;;;;;13.79;91.99;99131.06;4169270;28;20025;-71
2022/06/12 04:44:29;;;;;;;5.13;4.63;;;;;;;13.97;93.55;99131.22;4169527;28;20116;-72
2022/06/12 04:46:30;;;;;;;6.57;5.40;;;;;;;14.17;93.93;99129.03;4168606;28;20029;-72
2022/06/12 04:48:40;;;;;;;9.65;5.07;;;;;;;14.34;93.46;99129.13;4167941;28;20024;-72
2022/06/12 04:50:41;;;;;;;7.18;4.97;;;;;;;14.57;92.50;99130.91;4168860;28;20017;-72
2022/06/12 04:52:42;;;;;;;7.05;5.25;;;;;;;14.73;91.92;99128.63;4169014;28;20025;-72
2022/06/12 04:54:45;;;;;;;5.65;5.03;;;;;;;14.88;91.01;99124.69;4169695;28;20079;-71
2022/06/12 04:56:45;;;;;;;9.18;5.45;;;;;;;14.98;91.30;99125.16;4168839;28;20029;-71
2022/06/12 04:58:46;;;;;;;7.63;5.25;;;;;;;15.13;89.60;99130.34;4168686;28;20029;-72
2022/06/12 05:00:46;;;;;;;8.25;4.97;;;;;;;15.29;89.91;99132.81;4168908;28;20029;-72
2022/06/12 05:02:46;;;;;;;6.93;4.75;;;;;;;15.42;88.01;99133.25;4169308;28;20400;-72
2022/06/12 05:04:46;;;;;;;7.60;4.88;;;;;;;15.59;86.92;99131.69;4169230;28;20031;-72
2022/06/12 05:06:51;;;;;;;7.28;4.50;;;;;;;15.80;85.85;99131.72;4169073;28;20119;-72
2022/06/12 05:08:52;;;;;;;6.35;4.18;;;;;;;15.96;84.49;99128.56;4168408;28;20445;-72
2022/06/12 05:10:53;;;;;;;4.60;4.20;;;;;;;16.13;83.69;99127.75;4169387;28;20025;-72
2022/06/12 05:12:53;;;;;;;5.22;4.55;;;;;;;16.18;82.52;99130.16;4168463;28;20346;-72
2022/06/12 05:14:54;;;;;;;7.13;4.63;;;;;;;16.34;83.31;99129.75;4168999;28;20082;-72
2022/06/12 05:16:59;;;;;;;9.20;4.35;;;;;;;16.40;82.39;99116.97;4169082;28;20285;-72
2022/06/12 05:19:00;;;;;;;6.35;4.22;;;;;;;16.53;82.11;99122.91;4168938;28;20247;-72
2022/06/12 05:21:01;;;;;;;6.65;4.65;;;;;;;16.63;80.93;99122.09;4169093;28;20445;-72
2022/06/12 05:23:03;;;;;;;6.15;4.57;;;;;;;16.74;80.97;99120.09;4168728;28;20041;-72
2022/06/12 05:25:04;;;;;;;5.45;4.30;;;;;;;16.85;81.37;99120.06;4167019;28;20437;-72
2022/06/12 05:27:06;;;;;;;6.72;4.57;;;;;;;16.97;81.53;99119.63;4167297;28;20064;-72
2022/06/12 05:29:11;;;;;;;7.30;4.43;;;;;;;17.09;80.42;99133.16;4167848;28;20574;-72
2022/06/12 05:31:11;;;;;;;4.25;3.80;;;;;;;17.18;79.19;99121.53;4168785;28;20072;-72
2022/06/12 05:33:12;;;;;;;5.45;3.80;;;;;;;17.24;79.24;99114.31;4168753;28;20036;-72
2022/06/12 05:35:13;;;;;;;6.68;3.50;;;;;;;17.38;78.68;99128.22;4169091;28;20623;-72
2022/06/12 05:37:14;;;;;;;5.65;4.45;;;;;;;17.43;77.72;99124.19;4168504;28;20412;-72
2022/06/12 05:39:15;;;;;;;7.80;3.75;;;;;;;17.47;76.37;99119.38;4168071;28;20430;-72
2022/06/12 05:41:16;;;;;;;6.47;3.45;;;;;;;17.58;76.94;99124.91;4167889;28;20029;-72
2022/06/12 05:43:16;;;;;;;4.50;3.70;;;;;;;17.67;76.75;99128.03;4169344;28;20036;-72
2022/06/12 05:45:20;;;;;;;4.82;3.80;;;;;;;17.73;75.94;99132.03;4168864;28;20024;-72
2022/06/12 05:47:20;;;;;;;5.93;3.55;;;;;;;17.80;74.97;99129.19;4169542;28;20498;-72
2022/06/12 05:49:21;;;;;;;4.53;3.47;;;;;;;17.90;73.70;99128.31;4169040;28;20029;-72
2022/06/12 05:51:21;;;;;;;7.85;3.90;;;;;;;17.99;74.18;99130.63;4169606;28;20053;-72
2022/06/12 05:53:24;;;;;;;5.65;3.63;;;;;;;18.08;73.22;99118.97;4169212;28;20035;-72
2022/06/12 05:55:25;;;;;;;5.05;3.60;;;;;;;18.15;73.62;99122.50;4169410;28;20278;-72
2022/06/12 05:57:25;;;;;;;5.07;3.38;;;;;;;18.20;72.47;99121.25;4169059;28;20665;-72
2022/06/12 05:59:26;;;;;;;4.25;3.45;;;;;;;18.22;72.34;99107.66;4168477;28;20025;-72
2022/06/12 06:01:27;;;;;;;7.70;3.55;;;;;;;18.24;71.31;99122.81;4169385;28;20072;-72
2022/06/12 06:03:28;;;;;;;4.88;3.42;;;;;;;18.15;71.32;99118.91;4167861;28;20512;-72
2022/06/12 06:05:28;;;;;;;3.60;3.28;;;;;;;18.34;71.09;99114.72;4168213;28;20025;-72
2022/06/12 06:07:28;;;;;;;4.80;3.13;;;;;;;18.39;69.12;99112.28;4168833;28;20411;-72
2022/06/12 06:09:29;;;;;;;4.68;3.50;;;;;;;18.45;69.87;99107.00;4168076;28;20372;-72
2022/06/12 06:11:29;;;;;;;6.07;3.22;;;;;;;18.55;69.68;99117.34;4169321;28;20037;-72
2022/06/12 06:13:30;;;;;;;5.68;3.42;;;;;;;18.61;68.94;99115.66;4169010;28;20029;-72
2022/06/12 06:15:30;;;;;;;3.25;2.95;;;;;;;18.69;69.05;99102.38;4168767;28;20025;-72
2022/06/12 06:17:30;;;;;;;6.00;3.28;;;;;;;18.76;68.71;99107.91;4169226;28;20350;-72
2022/06/12 06:19:32;;;;;;;4.28;3.60;;;;;;;18.80;68.53;99108.69;4168260;28;20326;-72
2022/06/12 06:21:32;;;;;;;5.70;3.40;;;;;;;18.87;69.00;99113.41;4168971;28;20037;-72
2022/06/12 06:23:32;;;;;;;4.35;3.28;;;;;;;18.93;69.30;99108.91;4169097;28;20025;-72
2022/06/12 06:25:34;;;;;;;8.93;3.40;;;;;;;19.05;68.04;99111.97;4169092;28;20673;-72
2022/06/12 06:27:34;;;;;;;5.70;3.75;;;;;;;18.96;68.02;99113.69;4167944;28;20053;-72
2022/06/12 06:29:36;;;;;;;4.35;3.67;;;;;;;19.14;69.97;99119.09;4168118;28;20397;-72
2022/06/12 06:31:36;;;;;;;5.33;3.37;;;;;;;19.23;67.99;99120.16;4169686;28;20504;-72
2022/06/12 06:33:37;;;;;;;5.95;3.45;;;;;;;19.23;67.86;99125.75;4170039;28;20021;-72
2022/06/12 06:35:38;;;;;;;4.15;3.30;;;;;;;19.32;69.05;99128.84;4169040;28;20044;-72
2022/06/12 06:37:39;;;;;;;4.80;3.65;;;;;;;19.35;67.93;99127.19;4168978;28;20575;-72
2022/06/12 06:39:41;;;;;;;4.22;3.67;;;;;;;19.39;68.15;99127.16;4168748;28;20036;-72
2022/06/12 06:41:42;;;;;;;5.03;3.17;;;;;;;19.45;67.97;99128.28;4168310;28;20108;-72
2022/06/12 06:46:13;;;;;;;4.78;3.28;;;;;;;19.55;68.04;99119.72;4170818;28;20630;-72
2022/06/12 06:48:14;;;;;;;4.55;3.10;;;;;;;19.59;67.51;99122.50;4171639;28;20033;-72
2022/06/12 06:50:18;;;;;;;4.45;3.50;;;;;;;19.60;68.38;99124.06;4171990;28;20102;-72
2022/06/12 06:52:18;;;;;;;4.72;3.42;;;;;;;19.69;69.29;99129.94;4173304;28;20128;-72
2022/06/12 06:54:19;;;;;;;3.58;3.20;;;;;;;19.69;66.38;99127.13;4171687;28;20512;-73
2022/06/12 06:56:20;;;;;;;5.72;3.28;;;;;;;19.84;67.99;99127.72;4172225;28;20428;-72
2022/06/12 06:58:23;;;;;;;4.50;3.58;;;;;;;19.89;66.12;99124.44;4171441;28;20037;-72
2022/06/12 07:00:28;;;;;;;6.30;3.20;;;;;;;19.89;64.80;99121.63;4171787;28;20350;-73
2022/06/12 07:02:28;;;;;;;5.63;3.47;;;;;;;19.88;66.42;99125.66;4170898;28;20613;-73
2022/06/12 07:04:29;;;;;;;6.00;3.33;;;;;;;19.96;66.52;99118.72;4171426;28;20023;-73
2022/06/12 07:06:30;;;;;;;5.32;3.40;;;;;;;20.00;65.42;99125.06;4170562;28;20032;-73
2022/06/12 07:08:31;;;;;;;6.65;3.50;;;;;;;20.10;65.11;99126.91;4170820;28;20029;-72
2022/06/12 07:10:33;;;;;;;5.65;3.65;;;;;;;19.93;65.09;99125.16;4170950;28;20472;-72
2022/06/12 07:12:34;;;;;;;5.50;3.15;;;;;;;20.08;65.06;99125.75;4170664;28;20122;-72
2022/06/12 07:14:35;;;;;;;5.47;3.63;;;;;;;20.18;66.17;99133.19;4171289;28;20036;-72
2022/06/12 07:16:37;;;;;;;6.63;3.70;;;;;;;20.22;65.64;99119.88;4171329;28;20036;-73
2022/06/12 07:18:37;;;;;;;5.90;3.40;;;;;;;20.25;64.36;99133.06;4170191;28;20037;-72
2022/06/12 07:20:46;;;;;;;6.78;3.45;;;;;;;20.21;64.93;99126.72;4171522;28;20540;-72
2022/06/12 07:22:46;;;;;;;5.03;3.25;;;;;;;20.28;64.11;99118.19;4171431;28;20083;-72
2022/06/12 07:24:47;;;;;;;6.05;3.75;;;;;;;20.38;65.28;99127.66;4172118;28;20749;-71
2022/06/12 07:26:48;;;;;;;5.07;3.60;;;;;;;20.40;63.37;99126.00;4170108;28;20526;-72
2022/06/12 07:28:49;;;;;;;6.07;3.90;;;;;;;20.35;63.20;99120.06;4170387;28;20454;-72
2022/06/12 07:30:51;;;;;;;4.68;3.35;;;;;;;20.45;63.31;99117.09;4172426;28;20033;-72
2022/06/12 07:32:51;;;;;;;4.80;3.35;;;;;;;20.51;62.54;99120.19;4171547;28;20134;-72
2022/06/12 07:34:53;;;;;;;5.15;3.60;;;;;;;20.50;62.45;99127.03;4171990;28;20057;-72
2022/06/12 07:36:54;;;;;;;4.50;3.30;;;;;;;20.57;62.46;99128.94;4171380;28;20395;-72
2022/06/12 07:38:55;;;;;;;3.83;3.30;;;;;;;20.66;62.35;99127.13;4169152;28;20789;-72
2022/06/12 07:41:00;;;;;;;4.82;3.78;;;;;;;20.69;61.98;99131.91;4166694;28;20031;-72
2022/06/12 07:43:00;;;;;;;3.65;3.00;;;;;;;20.78;60.89;99125.72;4171353;28;20103;-72
2022/06/12 07:45:01;;;;;;;3.55;3.25;;;;;;;20.86;60.73;99124.38;4171871;28;20487;-72
2022/06/12 07:47:02;;;;;;;3.42;3.13;;;;;;;20.89;60.14;99122.69;4171500;28;20040;-72
2022/06/12 07:49:03;;;;;;;5.18;3.50;;;;;;;20.86;60.02;99117.94;4171395;28;20350;-72
2022/06/12 07:51:08;;;;;;;3.50;3.00;;;;;;;20.91;59.48;99129.47;4171054;28;20449;-72
2022/06/12 07:53:10;;;;;;;5.40;3.88;;;;;;;20.95;59.47;99123.78;4171575;28;20074;-72
2022/06/12 07:55:13;;;;;;;5.00;3.40;;;;;;;20.95;60.73;99120.97;4170927;28;20094;-72
2022/06/12 07:57:14;;;;;;;5.07;3.80;;;;;;;20.96;59.53;99122.56;4171695;28;20032;-72
2022/06/12 07:59:15;;;;;;;3.50;3.20;;;;;;;21.03;58.94;99122.41;4170867;28;20029;-72
2022/06/12 08:01:18;;;;;;;5.10;4.15;;;;;;;21.08;59.63;99124.72;4171085;28;20404;-72
2022/06/12 08:03:19;;;;;;;3.90;3.50;;;;;;;21.03;58.25;99120.41;4171498;28;20431;-72
2022/06/12 08:05:20;;;;;;;4.05;3.20;;;;;;;21.09;58.57;99125.50;4170954;28;20025;-72
2022/06/12 08:07:20;;;;;;;7.45;6.00;;;;;;;21.11;58.86;99123.88;4171435;28;20033;-72
2022/06/12 08:09:21;;;;;;;10.18;8.23;;;;;;;21.18;59.45;99123.69;4170092;28;20040;-72
2022/06/12 08:11:22;;;;;;;7.85;5.15;;;;;;;21.17;59.97;99127.72;4170963;28;20535;-72
2022/06/12 08:13:24;;;;;;;6.00;4.28;;;;;;;21.27;59.92;99123.16;4171428;28;20035;-72
2022/06/12 08:15:27;;;;;;;5.38;2.65;;;;;;;21.32;57.55;99128.25;4171124;28;20033;-72
2022/06/12 08:17:28;;;;;;;4.32;3.03;;;;;;;21.30;58.59;99113.84;4170467;28;20123;-72
2022/06/12 08:21:47;;;;;;;7.88;5.47;;;;;;;21.51;58.35;99118.19;4171451;28;20032;-72
2022/06/12 08:23:51;;;;;;;5.47;4.07;;;;;;;21.55;57.97;99102.81;4170950;28;20041;-72
2022/06/12 08:26:16;;;;;;;5.30;3.10;;;;;;;21.53;55.58;99121.38;4170834;28;20021;-72
2022/06/12 08:28:16;;;;;;;6.30;3.30;;;;;;;21.58;57.50;99112.41;4170822;28;20083;-72
2022/06/12 08:30:17;;;;;;;3.58;2.60;;;;;;;21.71;57.64;99118.16;4170327;28;20490;-72
2022/06/12 08:32:21;;;;;;;4.05;3.10;;;;;;;21.77;58.23;99120.00;4170688;28;20025;-72
2022/06/12 08:34:38;;;;;;;4.47;3.38;;;;;;;21.74;58.17;99118.06;4170453;28;20043;-72
2022/06/12 08:36:39;;;;;;;4.47;3.20;;;;;;;21.92;58.65;99114.81;4168614;28;20036;-72
2022/06/12 08:38:40;;;;;;;6.72;3.95;;;;;;;22.02;55.88;99115.81;4169540;28;20644;-72
2022/06/12 08:40:47;;;;;;;5.15;3.25;;;;;;;21.95;55.99;99118.78;4170553;28;20047;-72
2022/06/12 08:43:01;;;;;;;3.65;3.20;;;;;;;22.00;56.05;99116.22;4170217;28;20036;-72
2022/06/12 08:45:15;;;;;;;4.35;3.20;;;;;;;22.01;57.34;99102.91;4170457;28;20064;-72
2022/06/12 08:47:22;;;;;;;7.03;3.40;;;;;;;22.02;55.83;99112.97;4170445;28;20021;-72
2022/06/12 08:49:47;;;;;;;4.50;3.22;;;;;;;22.11;56.36;99111.16;4169741;28;20465;-73
2022/06/12 08:52:01;;;;;;;5.18;3.00;;;;;;;22.00;56.23;99106.97;4170252;28;20052;-73
2022/06/12 08:54:12;;;;;;;3.85;3.35;;;;;;;22.06;55.65;99093.94;4170185;28;20033;-73
2022/06/12 08:56:24;;;;;;;6.47;3.10;;;;;;;22.10;56.34;99108.78;4170348;28;20411;-73
2022/06/12 08:58:28;;;;;;;7.13;3.10;;;;;;;22.00;56.78;99102.13;4169991;28;20040;-73
2022/06/12 09:00:35;;;;;;;5.03;3.72;;;;;;;21.81;56.14;99095.34;4170096;28;20029;-73
2022/06/12 09:02:38;;;;;;;7.25;3.45;;;;;;;21.71;56.87;99096.41;4170201;28;20029;-73
2022/06/12 09:04:38;;;;;;;4.65;4.07;;;;;;;21.78;57.05;99104.69;4170631;28;20079;-73
2022/06/12 09:06:43;;;;;;;4.45;3.17;;;;;;;21.94;57.26;99103.91;4169917;28;20493;-73
2022/06/12 09:08:51;;;;;;;4.85;3.35;;;;;;;22.04;57.18;99104.88;4169099;28;20528;-73
2022/06/12 09:11:03;;;;;;;4.03;2.90;;;;;;;22.03;55.83;99109.72;4170035;28;20029;-73
2022/06/12 09:13:16;;;;;;;6.53;2.97;;;;;;;21.81;56.73;99115.06;4170378;28;20112;-73
2022/06/12 09:15:28;;;;;;;5.68;3.22;;;;;;;21.93;56.35;99107.16;4170018;28;20029;-73
2022/06/12 09:17:37;;;;;;;5.57;3.35;;;;;;;22.22;56.06;99104.47;4169419;28;20103;-73
2022/06/12 09:20:08;;;;;;;5.80;3.30;;;;;;;22.32;54.97;99095.72;4169729;28;20055;-73
2022/06/12 09:22:30;;;;;;;4.20;3.03;;;;;;;22.39;55.13;99089.09;4169337;28;20397;-73
2022/06/12 09:24:47;;;;;;;3.97;2.65;;;;;;;22.50;56.31;99100.88;4170091;28;20033;-73
2022/06/12 09:27:13;;;;;;;4.25;3.33;;;;;;;22.68;55.44;99106.06;4169236;28;20086;-73
2022/06/12 09:29:35;;;;;;;3.92;2.97;;;;;;;22.61;54.68;99109.06;4168458;28;20036;-73
2022/06/12 09:31:44;;;;;;;6.75;2.92;;;;;;;22.62;54.84;99105.00;4170104;28;20032;-73
2022/06/12 09:33:58;;;;;;;4.47;3.33;;;;;;;22.89;53.76;99097.00;4170236;28;20442;-73
2022/06/12 09:36:26;;;;;;;7.00;3.10;;;;;;;23.05;52.92;99098.97;4169256;28;20366;-73
2022/06/12 09:38:52;;;;;;;4.68;3.33;;;;;;;22.51;53.61;99094.03;4168918;28;20024;-73
2022/06/12 09:41:12;;;;;;;6.75;3.17;;;;;;;22.44;54.00;99099.84;4168996;28;20481;-73
2022/06/12 09:44:09;;;;;;;6.28;3.40;;;;;;;22.42;53.77;99093.84;4170424;28;20106;-73
2022/06/12 09:46:22;;;;;;;5.68;3.28;;;;;;;22.85;55.85;99087.88;4149685;28;20082;-73
2022/06/12 09:48:27;;;;;;;3.65;2.80;;;;;;;23.30;53.28;99084.13;4150099;28;20180;-73
2022/06/12 09:50:38;;;;;;;3.15;2.80;;;;;;;23.44;50.93;99078.03;4154774;28;20029;-72
2022/06/12 09:53:07;;;;;;;4.72;3.10;;;;;;;23.73;49.55;99079.97;4169551;28;20036;-73
2022/06/12 09:55:22;;;;;;;4.25;2.83;;;;;;;23.68;48.26;99067.22;4170250;28;20055;-73
2022/06/12 09:57:51;;;;;;;5.07;2.63;;;;;;;23.54;47.94;99076.91;4169938;28;20398;-73
2022/06/12 10:00:16;;;;;;;3.78;2.85;;;;;;;23.75;48.26;99066.22;4169354;28;20036;-73
2022/06/12 10:02:24;;;;;;;3.78;2.88;;;;;;;23.82;48.49;99068.78;4169847;28;20136;-73
2022/06/12 10:04:36;;;;;;;3.65;2.75;;;;;;;23.38;47.87;99065.72;4169633;28;20036;-73
2022/06/12 10:06:43;;;;;;;5.00;2.90;;;;;;;23.40;47.04;99062.44;4169077;28;20037;-73
2022/06/12 10:08:52;;;;;;;3.78;2.78;;;;;;;23.47;47.45;99065.03;4168871;28;20037;-73
2022/06/12 10:11:07;;;;;;;5.90;2.78;;;;;;;23.27;48.33;99051.94;4169228;28;20036;-73